sensor_id;sensor_type;location;lat;lon;timestamp;P1;durP1;ratioP1;P2;durP2;ratioP2
4857;SDS011;58975;51.978;8.472;2022-08-19T00:04:22;7.80;;;4.90;;
4857;SDS011;58975;51.978;8.472;2022-08-19T00:09:24;9.15;;;5.10;;
4857;SDS011;58975;51.978;8.472;2022-08-19T00:14:21;11.55;;;5.63;;
4857;SDS011;58975;51.978;8.472;2022-08-19T00:19:18;9.77;;;5.28;;
4857;SDS011;58975;51.978;8.472;2022-08-19T00:24:15;7.88;;;4.95;;
4857;SDS011;58975;51.978;8.472;2022-08-19T00:29:12;9.40;;;5.33;;
4857;SDS011;58975;51.978;8.472;2022-08-19T00:34:11;13.30;;;7.53;;
4857;SDS011;58975;51.978;8.472;2022-08-19T00:39:08;18.90;;;6.22;;
4857;SDS011;58975;51.978;8.472;2022-08-19T00:44:14;10.48;;;6.00;;
4857;SDS011;58975;51.978;8.472;2022-08-19T00:54:16;11.35;;;6.05;;
4857;SDS011;58975;51.978;8.472;2022-08-19T00:59:14;10.68;;;6.15;;
4857;SDS011;58975;51.978;8.472;2022-08-19T01:04:32;12.40;;;7.72;;
4857;SDS011;58975;51.978;8.472;2022-08-19T01:09:28;9.65;;;6.25;;
4857;SDS011;58975;51.978;8.472;2022-08-19T01:14:26;11.80;;;7.75;;
4857;SDS011;58975;51.978;8.472;2022-08-19T01:19:33;11.70;;;6.95;;
4857;SDS011;58975;51.978;8.472;2022-08-19T01:24:39;13.75;;;8.32;;
4857;SDS011;58975;51.978;8.472;2022-08-19T01:29:44;20.10;;;8.85;;
4857;SDS011;58975;51.978;8.472;2022-08-19T01:34:41;15.13;;;8.48;;
4857;SDS011;58975;51.978;8.472;2022-08-19T01:39:40;15.15;;;7.95;;
4857;SDS011;58975;51.978;8.472;2022-08-19T01:49:37;16.58;;;8.30;;
4857;SDS011;58975;51.978;8.472;2022-08-19T01:54:33;9.90;;;8.00;;
4857;SDS011;58975;51.978;8.472;2022-08-19T01:59:30;10.65;;;7.00;;
4857;SDS011;58975;51.978;8.472;2022-08-19T02:04:28;18.67;;;8.73;;
4857;SDS011;58975;51.978;8.472;2022-08-19T02:09:25;13.45;;;8.52;;
4857;SDS011;58975;51.978;8.472;2022-08-19T02:14:21;13.82;;;8.00;;
4857;SDS011;58975;51.978;8.472;2022-08-19T02:19:17;11.80;;;7.63;;
4857;SDS011;58975;51.978;8.472;2022-08-19T02:24:14;13.45;;;9.25;;
4857;SDS011;58975;51.978;8.472;2022-08-19T02:29:10;13.55;;;8.05;;
4857;SDS011;58975;51.978;8.472;2022-08-19T02:34:07;13.75;;;8.10;;
4857;SDS011;58975;51.978;8.472;2022-08-19T02:39:03;12.57;;;7.38;;
4857;SDS011;58975;51.978;8.472;2022-08-19T02:44:00;11.23;;;7.07;;
4857;SDS011;58975;51.978;8.472;2022-08-19T02:49:18;16.20;;;8.15;;
4857;SDS011;58975;51.978;8.472;2022-08-19T02:54:15;9.27;;;6.53;;
4857;SDS011;58975;51.978;8.472;2022-08-19T02:59:12;9.07;;;6.13;;
4857;SDS011;58975;51.978;8.472;2022-08-19T03:04:10;12.90;;;7.13;;
4857;SDS011;58975;51.978;8.472;2022-08-19T03:09:08;11.52;;;7.72;;
4857;SDS011;58975;51.978;8.472;2022-08-19T03:14:06;6.68;;;4.93;;
4857;SDS011;58975;51.978;8.472;2022-08-19T03:19:04;12.85;;;7.30;;
4857;SDS011;58975;51.978;8.472;2022-08-19T03:24:02;11.52;;;7.32;;
4857;SDS011;58975;51.978;8.472;2022-08-19T03:29:02;12.45;;;7.18;;
4857;SDS011;58975;51.978;8.472;2022-08-19T03:34:00;8.18;;;6.00;;
4857;SDS011;58975;51.978;8.472;2022-08-19T03:38:59;11.90;;;7.25;;
4857;SDS011;58975;51.978;8.472;2022-08-19T03:43:57;16.67;;;8.75;;
4857;SDS011;58975;51.978;8.472;2022-08-19T03:48:54;13.03;;;8.80;;
4857;SDS011;58975;51.978;8.472;2022-08-19T03:53:53;14.95;;;8.55;;
4857;SDS011;58975;51.978;8.472;2022-08-19T03:58:51;16.23;;;9.13;;
4857;SDS011;58975;51.978;8.472;2022-08-19T04:03:48;23.00;;;11.13;;
4857;SDS011;58975;51.978;8.472;2022-08-19T04:08:45;19.88;;;11.55;;
4857;SDS011;58975;51.978;8.472;2022-08-19T04:13:42;19.17;;;11.20;;
4857;SDS011;58975;51.978;8.472;2022-08-19T04:18:40;11.77;;;8.77;;
4857;SDS011;58975;51.978;8.472;2022-08-19T04:23:37;36.10;;;12.30;;
4857;SDS011;58975;51.978;8.472;2022-08-19T04:28:40;21.83;;;11.23;;
4857;SDS011;58975;51.978;8.472;2022-08-19T04:33:37;29.67;;;12.57;;
4857;SDS011;58975;51.978;8.472;2022-08-19T04:38:34;22.60;;;14.52;;
4857;SDS011;58975;51.978;8.472;2022-08-19T04:43:31;20.65;;;12.65;;
4857;SDS011;58975;51.978;8.472;2022-08-19T04:48:28;15.90;;;10.00;;
4857;SDS011;58975;51.978;8.472;2022-08-19T04:53:25;15.60;;;9.95;;
4857;SDS011;58975;51.978;8.472;2022-08-19T04:58:25;18.13;;;11.75;;
4857;SDS011;58975;51.978;8.472;2022-08-19T05:03:23;19.13;;;11.48;;
4857;SDS011;58975;51.978;8.472;2022-08-19T05:08:25;22.98;;;13.13;;
4857;SDS011;58975;51.978;8.472;2022-08-19T05:13:26;21.70;;;13.20;;
4857;SDS011;58975;51.978;8.472;2022-08-19T05:18:23;21.65;;;13.27;;
4857;SDS011;58975;51.978;8.472;2022-08-19T05:23:38;27.00;;;14.50;;
4857;SDS011;58975;51.978;8.472;2022-08-19T05:28:35;25.40;;;15.00;;
4857;SDS011;58975;51.978;8.472;2022-08-19T05:33:31;17.48;;;12.25;;
4857;SDS011;58975;51.978;8.472;2022-08-19T05:38:27;19.73;;;12.23;;
4857;SDS011;58975;51.978;8.472;2022-08-19T05:43:24;20.48;;;12.85;;
4857;SDS011;58975;51.978;8.472;2022-08-19T05:48:21;24.13;;;13.63;;
4857;SDS011;58975;51.978;8.472;2022-08-19T05:53:18;26.48;;;15.07;;
4857;SDS011;58975;51.978;8.472;2022-08-19T05:58:14;20.90;;;11.97;;
4857;SDS011;58975;51.978;8.472;2022-08-19T06:03:11;26.38;;;16.30;;
4857;SDS011;58975;51.978;8.472;2022-08-19T06:08:08;26.27;;;15.25;;
4857;SDS011;58975;51.978;8.472;2022-08-19T06:13:05;25.95;;;15.38;;
4857;SDS011;58975;51.978;8.472;2022-08-19T06:18:01;26.70;;;15.75;;
4857;SDS011;58975;51.978;8.472;2022-08-19T06:22:58;21.73;;;14.18;;
4857;SDS011;58975;51.978;8.472;2022-08-19T06:27:55;27.77;;;14.03;;
4857;SDS011;58975;51.978;8.472;2022-08-19T06:33:10;18.60;;;12.68;;
4857;SDS011;58975;51.978;8.472;2022-08-19T06:38:06;18.55;;;12.48;;
4857;SDS011;58975;51.978;8.472;2022-08-19T06:43:03;22.83;;;11.97;;
4857;SDS011;58975;51.978;8.472;2022-08-19T06:48:04;15.93;;;10.23;;
4857;SDS011;58975;51.978;8.472;2022-08-19T06:53:00;16.67;;;11.93;;
4857;SDS011;58975;51.978;8.472;2022-08-19T06:58:03;15.68;;;10.85;;
4857;SDS011;58975;51.978;8.472;2022-08-19T07:03:00;13.63;;;9.88;;
4857;SDS011;58975;51.978;8.472;2022-08-19T07:08:03;14.48;;;10.02;;
4857;SDS011;58975;51.978;8.472;2022-08-19T07:13:01;13.68;;;8.77;;
4857;SDS011;58975;51.978;8.472;2022-08-19T07:17:58;11.27;;;7.60;;
4857;SDS011;58975;51.978;8.472;2022-08-19T07:22:55;11.60;;;7.13;;
4857;SDS011;58975;51.978;8.472;2022-08-19T07:27:51;11.85;;;7.05;;
4857;SDS011;58975;51.978;8.472;2022-08-19T07:32:49;10.57;;;5.80;;
4857;SDS011;58975;51.978;8.472;2022-08-19T07:37:49;11.63;;;5.65;;
4857;SDS011;58975;51.978;8.472;2022-08-19T07:42:45;8.33;;;4.40;;
4857;SDS011;58975;51.978;8.472;2022-08-19T07:47:42;7.50;;;4.88;;
4857;SDS011;58975;51.978;8.472;2022-08-19T07:52:46;9.30;;;5.45;;
4857;SDS011;58975;51.978;8.472;2022-08-19T07:57:45;8.13;;;5.38;;
4857;SDS011;58975;51.978;8.472;2022-08-19T08:02:41;12.38;;;5.43;;
4857;SDS011;58975;51.978;8.472;2022-08-19T08:07:38;12.57;;;6.10;;
4857;SDS011;58975;51.978;8.472;2022-08-19T08:12:53;13.05;;;6.10;;
4857;SDS011;58975;51.978;8.472;2022-08-19T08:18:06;7.97;;;5.75;;
4857;SDS011;58975;51.978;8.472;2022-08-19T08:23:04;10.05;;;6.03;;
4857;SDS011;58975;51.978;8.472;2022-08-19T08:28:19;9.55;;;6.40;;
4857;SDS011;58975;51.978;8.472;2022-08-19T08:33:19;7.97;;;5.93;;
4857;SDS011;58975;51.978;8.472;2022-08-19T08:38:31;6.43;;;5.82;;
4857;SDS011;58975;51.978;8.472;2022-08-19T08:43:37;5.97;;;4.88;;
4857;SDS011;58975;51.978;8.472;2022-08-19T08:48:40;7.85;;;4.95;;
4857;SDS011;58975;51.978;8.472;2022-08-19T08:53:48;7.30;;;4.38;;
4857;SDS011;58975;51.978;8.472;2022-08-19T08:58:57;7.88;;;4.07;;
4857;SDS011;58975;51.978;8.472;2022-08-19T09:03:55;6.90;;;3.55;;
4857;SDS011;58975;51.978;8.472;2022-08-19T09:14:32;6.68;;;4.22;;
4857;SDS011;58975;51.978;8.472;2022-08-19T09:24:52;8.38;;;3.42;;
4857;SDS011;58975;51.978;8.472;2022-08-19T09:29:50;4.57;;;3.83;;
4857;SDS011;58975;51.978;8.472;2022-08-19T09:34:50;5.18;;;2.80;;
4857;SDS011;58975;51.978;8.472;2022-08-19T09:39:46;5.32;;;3.13;;
4857;SDS011;58975;51.978;8.472;2022-08-19T09:44:44;5.78;;;2.70;;
4857;SDS011;58975;51.978;8.472;2022-08-19T09:49:41;4.10;;;2.47;;
4857;SDS011;58975;51.978;8.472;2022-08-19T09:54:38;4.55;;;2.55;;
4857;SDS011;58975;51.978;8.472;2022-08-19T09:59:39;4.13;;;2.55;;
4857;SDS011;58975;51.978;8.472;2022-08-19T10:04:36;3.63;;;2.60;;
4857;SDS011;58975;51.978;8.472;2022-08-19T10:09:51;3.55;;;3.10;;
4857;SDS011;58975;51.978;8.472;2022-08-19T10:14:48;4.47;;;2.90;;
4857;SDS011;58975;51.978;8.472;2022-08-19T10:19:44;4.03;;;2.80;;
4857;SDS011;58975;51.978;8.472;2022-08-19T10:24:51;4.38;;;3.03;;
4857;SDS011;58975;51.978;8.472;2022-08-19T10:29:48;5.10;;;2.60;;
4857;SDS011;58975;51.978;8.472;2022-08-19T10:34:45;2.70;;;2.05;;
4857;SDS011;58975;51.978;8.472;2022-08-19T10:39:46;3.63;;;2.22;;
4857;SDS011;58975;51.978;8.472;2022-08-19T10:44:46;3.90;;;2.00;;
4857;SDS011;58975;51.978;8.472;2022-08-19T10:49:48;2.20;;;1.98;;
4857;SDS011;58975;51.978;8.472;2022-08-19T10:55:07;2.13;;;1.90;;
4857;SDS011;58975;51.978;8.472;2022-08-19T11:00:25;3.30;;;2.17;;
4857;SDS011;58975;51.978;8.472;2022-08-19T11:05:21;2.88;;;2.15;;
4857;SDS011;58975;51.978;8.472;2022-08-19T11:10:19;3.72;;;2.25;;
4857;SDS011;58975;51.978;8.472;2022-08-19T11:15:17;5.72;;;2.03;;
4857;SDS011;58975;51.978;8.472;2022-08-19T11:20:14;4.20;;;2.42;;
4857;SDS011;58975;51.978;8.472;2022-08-19T11:30:07;3.77;;;2.03;;
4857;SDS011;58975;51.978;8.472;2022-08-19T11:35:08;3.55;;;1.85;;
4857;SDS011;58975;51.978;8.472;2022-08-19T11:40:05;3.35;;;1.85;;
4857;SDS011;58975;51.978;8.472;2022-08-19T11:45:02;3.17;;;2.13;;
4857;SDS011;58975;51.978;8.472;2022-08-19T11:50:00;7.07;;;1.98;;
4857;SDS011;58975;51.978;8.472;2022-08-19T11:54:56;2.70;;;1.80;;
4857;SDS011;58975;51.978;8.472;2022-08-19T11:59:52;5.60;;;1.25;;
4857;SDS011;58975;51.978;8.472;2022-08-19T12:04:49;2.40;;;1.88;;
4857;SDS011;58975;51.978;8.472;2022-08-19T12:09:45;7.32;;;2.03;;
4857;SDS011;58975;51.978;8.472;2022-08-19T12:14:43;1.88;;;1.70;;
4857;SDS011;58975;51.978;8.472;2022-08-19T12:19:40;1.85;;;1.70;;
4857;SDS011;58975;51.978;8.472;2022-08-19T12:24:36;1.92;;;1.73;;
4857;SDS011;58975;51.978;8.472;2022-08-19T12:29:33;3.10;;;2.08;;
4857;SDS011;58975;51.978;8.472;2022-08-19T12:34:30;3.17;;;1.70;;
4857;SDS011;58975;51.978;8.472;2022-08-19T12:39:28;3.97;;;1.38;;
4857;SDS011;58975;51.978;8.472;2022-08-19T12:44:24;1.98;;;1.75;;
4857;SDS011;58975;51.978;8.472;2022-08-19T12:49:24;3.15;;;1.98;;
4857;SDS011;58975;51.978;8.472;2022-08-19T12:54:43;1.65;;;1.55;;
4857;SDS011;58975;51.978;8.472;2022-08-19T12:59:40;3.97;;;1.98;;
4857;SDS011;58975;51.978;8.472;2022-08-19T13:04:37;2.72;;;1.73;;
4857;SDS011;58975;51.978;8.472;2022-08-19T13:09:37;2.00;;;1.80;;
4857;SDS011;58975;51.978;8.472;2022-08-19T13:14:34;3.70;;;2.10;;
4857;SDS011;58975;51.978;8.472;2022-08-19T13:19:35;2.47;;;1.67;;
4857;SDS011;58975;51.978;8.472;2022-08-19T13:24:32;5.57;;;1.90;;
4857;SDS011;58975;51.978;8.472;2022-08-19T13:29:29;2.45;;;1.50;;
4857;SDS011;58975;51.978;8.472;2022-08-19T13:34:44;3.08;;;2.15;;
4857;SDS011;58975;51.978;8.472;2022-08-19T13:39:42;2.45;;;1.85;;
4857;SDS011;58975;51.978;8.472;2022-08-19T13:44:39;3.85;;;1.83;;
4857;SDS011;58975;51.978;8.472;2022-08-19T13:49:35;1.85;;;1.60;;
4857;SDS011;58975;51.978;8.472;2022-08-19T13:59:28;2.03;;;1.33;;
4857;SDS011;58975;51.978;8.472;2022-08-19T14:04:25;2.22;;;1.63;;
4857;SDS011;58975;51.978;8.472;2022-08-19T14:09:21;4.00;;;1.77;;
4857;SDS011;58975;51.978;8.472;2022-08-19T14:14:17;1.38;;;1.27;;
4857;SDS011;58975;51.978;8.472;2022-08-19T14:19:14;2.47;;;1.73;;
4857;SDS011;58975;51.978;8.472;2022-08-19T14:24:10;3.33;;;1.80;;
4857;SDS011;58975;51.978;8.472;2022-08-19T14:29:07;2.45;;;1.67;;
4857;SDS011;58975;51.978;8.472;2022-08-19T14:34:03;4.57;;;1.70;;
4857;SDS011;58975;51.978;8.472;2022-08-19T14:39:00;1.48;;;1.38;;
4857;SDS011;58975;51.978;8.472;2022-08-19T14:48:53;1.75;;;1.65;;
4857;SDS011;58975;51.978;8.472;2022-08-19T14:53:51;6.25;;;2.28;;
4857;SDS011;58975;51.978;8.472;2022-08-19T15:03:47;3.05;;;1.60;;
4857;SDS011;58975;51.978;8.472;2022-08-19T15:08:45;2.17;;;1.60;;
4857;SDS011;58975;51.978;8.472;2022-08-19T15:13:42;2.78;;;1.80;;
4857;SDS011;58975;51.978;8.472;2022-08-19T15:18:40;2.40;;;1.73;;
4857;SDS011;58975;51.978;8.472;2022-08-19T15:23:40;3.17;;;1.80;;
4857;SDS011;58975;51.978;8.472;2022-08-19T15:28:40;1.83;;;1.70;;
4857;SDS011;58975;51.978;8.472;2022-08-19T15:33:38;2.80;;;1.77;;
4857;SDS011;58975;51.978;8.472;2022-08-19T15:38:38;1.98;;;1.60;;
4857;SDS011;58975;51.978;8.472;2022-08-19T15:43:41;2.97;;;1.60;;
4857;SDS011;58975;51.978;8.472;2022-08-19T15:48:37;2.03;;;1.90;;
4857;SDS011;58975;51.978;8.472;2022-08-19T15:53:34;1.73;;;1.63;;
4857;SDS011;58975;51.978;8.472;2022-08-19T15:58:30;1.95;;;1.85;;
4857;SDS011;58975;51.978;8.472;2022-08-19T16:03:45;2.33;;;2.13;;
4857;SDS011;58975;51.978;8.472;2022-08-19T16:09:09;2.17;;;1.98;;
4857;SDS011;58975;51.978;8.472;2022-08-19T16:14:05;2.22;;;2.03;;
4857;SDS011;58975;51.978;8.472;2022-08-19T16:19:05;2.42;;;2.00;;
4857;SDS011;58975;51.978;8.472;2022-08-19T16:24:08;3.60;;;2.10;;
4857;SDS011;58975;51.978;8.472;2022-08-19T16:29:08;2.40;;;1.88;;
4857;SDS011;58975;51.978;8.472;2022-08-19T16:34:08;2.28;;;2.08;;
4857;SDS011;58975;51.978;8.472;2022-08-19T16:39:06;4.22;;;2.35;;
4857;SDS011;58975;51.978;8.472;2022-08-19T16:44:05;2.58;;;2.25;;
4857;SDS011;58975;51.978;8.472;2022-08-19T16:49:02;8.43;;;3.65;;
4857;SDS011;58975;51.978;8.472;2022-08-19T16:53:59;4.28;;;2.85;;
4857;SDS011;58975;51.978;8.472;2022-08-19T16:58:56;1.98;;;1.88;;
4857;SDS011;58975;51.978;8.472;2022-08-19T17:03:56;4.10;;;2.33;;
4857;SDS011;58975;51.978;8.472;2022-08-19T17:08:54;2.67;;;2.28;;
4857;SDS011;58975;51.978;8.472;2022-08-19T17:13:54;4.40;;;2.30;;
4857;SDS011;58975;51.978;8.472;2022-08-19T17:18:54;5.10;;;2.85;;
4857;SDS011;58975;51.978;8.472;2022-08-19T17:23:52;5.18;;;2.92;;
4857;SDS011;58975;51.978;8.472;2022-08-19T17:28:51;4.90;;;3.20;;
4857;SDS011;58975;51.978;8.472;2022-08-19T17:33:50;7.15;;;3.38;;
4857;SDS011;58975;51.978;8.472;2022-08-19T17:38:47;3.30;;;3.00;;
4857;SDS011;58975;51.978;8.472;2022-08-19T17:43:44;3.30;;;3.00;;
4857;SDS011;58975;51.978;8.472;2022-08-19T17:48:40;3.40;;;3.10;;
4857;SDS011;58975;51.978;8.472;2022-08-19T17:53:37;4.40;;;3.17;;
4857;SDS011;58975;51.978;8.472;2022-08-19T17:58:34;3.93;;;3.00;;
4857;SDS011;58975;51.978;8.472;2022-08-19T18:03:31;3.53;;;2.78;;
4857;SDS011;58975;51.978;8.472;2022-08-19T18:08:28;5.83;;;3.20;;
4857;SDS011;58975;51.978;8.472;2022-08-19T18:13:24;3.47;;;3.17;;
4857;SDS011;58975;51.978;8.472;2022-08-19T18:18:21;4.07;;;2.85;;
4857;SDS011;58975;51.978;8.472;2022-08-19T18:23:17;3.50;;;3.00;;
4857;SDS011;58975;51.978;8.472;2022-08-19T18:28:34;4.50;;;3.33;;
4857;SDS011;58975;51.978;8.472;2022-08-19T18:33:30;9.15;;;3.80;;
4857;SDS011;58975;51.978;8.472;2022-08-19T18:38:39;4.20;;;3.15;;
4857;SDS011;58975;51.978;8.472;2022-08-19T18:43:57;4.05;;;2.50;;
4857;SDS011;58975;51.978;8.472;2022-08-19T18:49:14;2.88;;;2.67;;
4857;SDS011;58975;51.978;8.472;2022-08-19T18:54:21;3.22;;;2.88;;
4857;SDS011;58975;51.978;8.472;2022-08-19T18:59:18;4.05;;;3.00;;
4857;SDS011;58975;51.978;8.472;2022-08-19T19:04:17;3.40;;;3.10;;
4857;SDS011;58975;51.978;8.472;2022-08-19T19:09:16;5.47;;;3.28;;
4857;SDS011;58975;51.978;8.472;2022-08-19T19:14:18;5.07;;;3.75;;
4857;SDS011;58975;51.978;8.472;2022-08-19T19:19:41;8.02;;;3.45;;
4857;SDS011;58975;51.978;8.472;2022-08-19T19:24:38;3.88;;;3.50;;
4857;SDS011;58975;51.978;8.472;2022-08-19T19:29:39;5.07;;;3.20;;
4857;SDS011;58975;51.978;8.472;2022-08-19T19:34:37;4.90;;;3.25;;
4857;SDS011;58975;51.978;8.472;2022-08-19T19:39:34;3.38;;;3.05;;
4857;SDS011;58975;51.978;8.472;2022-08-19T19:44:42;6.70;;;3.70;;
4857;SDS011;58975;51.978;8.472;2022-08-19T19:49:46;6.68;;;4.40;;
4857;SDS011;58975;51.978;8.472;2022-08-19T19:55:06;4.97;;;3.28;;
4857;SDS011;58975;51.978;8.472;2022-08-19T20:00:04;6.90;;;3.67;;
4857;SDS011;58975;51.978;8.472;2022-08-19T20:05:03;4.50;;;3.90;;
4857;SDS011;58975;51.978;8.472;2022-08-19T20:10:00;6.20;;;3.95;;
4857;SDS011;58975;51.978;8.472;2022-08-19T20:14:57;6.77;;;3.93;;
4857;SDS011;58975;51.978;8.472;2022-08-19T20:19:53;5.10;;;4.27;;
4857;SDS011;58975;51.978;8.472;2022-08-19T20:24:53;5.25;;;3.60;;
4857;SDS011;58975;51.978;8.472;2022-08-19T20:29:49;6.70;;;3.55;;
4857;SDS011;58975;51.978;8.472;2022-08-19T20:34:47;5.88;;;4.15;;
4857;SDS011;58975;51.978;8.472;2022-08-19T20:39:44;4.88;;;3.83;;
4857;SDS011;58975;51.978;8.472;2022-08-19T20:44:41;8.20;;;4.73;;
4857;SDS011;58975;51.978;8.472;2022-08-19T20:49:38;6.22;;;4.50;;
4857;SDS011;58975;51.978;8.472;2022-08-19T20:54:34;6.13;;;4.50;;
4857;SDS011;58975;51.978;8.472;2022-08-19T20:59:31;8.13;;;4.30;;
4857;SDS011;58975;51.978;8.472;2022-08-19T21:04:27;6.33;;;4.03;;
4857;SDS011;58975;51.978;8.472;2022-08-19T21:09:24;10.80;;;5.60;;
4857;SDS011;58975;51.978;8.472;2022-08-19T21:14:20;6.10;;;4.97;;
4857;SDS011;58975;51.978;8.472;2022-08-19T21:24:19;6.78;;;5.68;;
4857;SDS011;58975;51.978;8.472;2022-08-19T21:34:13;7.28;;;4.75;;
4857;SDS011;58975;51.978;8.472;2022-08-19T21:39:09;9.27;;;5.90;;
4857;SDS011;58975;51.978;8.472;2022-08-19T21:44:06;6.82;;;5.78;;
4857;SDS011;58975;51.978;8.472;2022-08-19T21:49:02;8.10;;;5.65;;
4857;SDS011;58975;51.978;8.472;2022-08-19T21:54:00;7.35;;;5.28;;
4857;SDS011;58975;51.978;8.472;2022-08-19T22:03:54;6.47;;;4.97;;
4857;SDS011;58975;51.978;8.472;2022-08-19T22:08:51;5.47;;;4.88;;
4857;SDS011;58975;51.978;8.472;2022-08-19T22:13:50;7.30;;;5.25;;
4857;SDS011;58975;51.978;8.472;2022-08-19T22:18:49;7.05;;;5.68;;
4857;SDS011;58975;51.978;8.472;2022-08-19T22:23:46;7.88;;;6.05;;
4857;SDS011;58975;51.978;8.472;2022-08-19T22:28:43;9.70;;;7.10;;
4857;SDS011;58975;51.978;8.472;2022-08-19T22:33:39;9.13;;;6.90;;
4857;SDS011;58975;51.978;8.472;2022-08-19T22:38:36;8.10;;;6.80;;
4857;SDS011;58975;51.978;8.472;2022-08-19T22:43:33;15.03;;;7.23;;
4857;SDS011;58975;51.978;8.472;2022-08-19T22:48:32;15.48;;;8.05;;
4857;SDS011;58975;51.978;8.472;2022-08-19T22:53:28;11.32;;;8.93;;
4857;SDS011;58975;51.978;8.472;2022-08-19T22:58:25;12.77;;;9.00;;
4857;SDS011;58975;51.978;8.472;2022-08-19T23:03:23;11.57;;;8.07;;
4857;SDS011;58975;51.978;8.472;2022-08-19T23:08:21;7.43;;;6.10;;
4857;SDS011;58975;51.978;8.472;2022-08-19T23:13:18;7.93;;;5.93;;
4857;SDS011;58975;51.978;8.472;2022-08-19T23:18:14;6.10;;;5.50;;
4857;SDS011;58975;51.978;8.472;2022-08-19T23:23:12;5.82;;;5.28;;
4857;SDS011;58975;51.978;8.472;2022-08-19T23:28:13;10.82;;;7.65;;
4857;SDS011;58975;51.978;8.472;2022-08-19T23:33:33;9.73;;;7.30;;
4857;SDS011;58975;51.978;8.472;2022-08-19T23:38:47;8.60;;;6.53;;
4857;SDS011;58975;51.978;8.472;2022-08-19T23:43:45;13.90;;;9.98;;
4857;SDS011;58975;51.978;8.472;2022-08-19T23:48:46;18.92;;;12.07;;
4857;SDS011;58975;51.978;8.472;2022-08-19T23:53:42;18.27;;;11.33;;
